sensor_id;sensor_type;location;lat;lon;timestamp;pressure;altitude;pressure_sealevel;temperature;humidity
46382;BME280;66809;52.974;-2.514;2023-02-18T00:01:47;1012.1667171231646;;;7.809668971828301;45.592253097605344
46382;BME280;66809;52.974;-2.514;2023-02-18T00:03:47;1012.136525598978;;;7.801972812689572;45.56881515089288
46382;BME280;66809;52.974;-2.514;2023-02-18T00:05:47;1012.1033921177097;;;7.789654937466609;45.556554653638806
46382;BME280;66809;52.974;-2.514;2023-02-18T00:07:47;1012.0687969447046;;;7.77539085936371;45.54994740316199
46382;BME280;66809;52.974;-2.514;2023-02-18T00:09:46;1012.0336582756244;;;7.756520155027013;45.53620625177548
46382;BME280;66809;52.974;-2.514;2023-02-18T00:11:51;1011.997827006321;;;7.739267265693526;45.52606350400531
46382;BME280;66809;52.974;-2.514;2023-02-18T00:13:49;1011.962869275716;;;7.7204466068958855;45.51639644992976
46382;BME280;66809;52.974;-2.514;2023-02-18T00:15:46;1011.9275078685049;;;7.703676930232651;45.509746718256515
46382;BME280;66809;52.974;-2.514;2023-02-18T00:17:47;1011.8902526145129;;;7.694730688182061;45.49328550645531
46382;BME280;66809;52.974;-2.514;2023-02-18T00:19:47;1011.8520233751296;;;7.674323129566696;45.47406361951894
46382;BME280;66809;52.974;-2.514;2023-02-18T00:21:47;1011.8163428675001;;;7.65824819887962;45.454091521997334
46382;BME280;66809;52.974;-2.514;2023-02-18T00:23:47;1011.7794747966175;;;7.657704985641803;45.4336257454878
46382;BME280;66809;52.974;-2.514;2023-02-18T00:25:46;1011.7441143535212;;;7.63871847363062;45.418809413065915
46382;BME280;66809;52.974;-2.514;2023-02-18T00:27:47;1011.7095428426854;;;7.6227792122530795;45.402132663460144
46382;BME280;66809;52.974;-2.514;2023-02-18T00:29:47;1011.67649932164;;;7.610531260484213;45.39605998279884
46382;BME280;66809;52.974;-2.514;2023-02-18T00:31:46;1011.6395871383128;;;7.590174472137787;45.393796319564004
46382;BME280;66809;52.974;-2.514;2023-02-18T00:33:47;1011.6032870399728;;;7.580553047098719;45.39165264803833
46382;BME280;66809;52.974;-2.514;2023-02-18T00:35:47;1011.5695302320813;;;7.56610876142439;45.397507317643516
46382;BME280;66809;52.974;-2.514;2023-02-18T00:37:50;1011.5315616796598;;;7.54755919445106;45.40472400171468
46382;BME280;66809;52.974;-2.514;2023-02-18T00:39:47;1011.4942987756301;;;7.523313398993409;45.4140697377858
46382;BME280;66809;52.974;-2.514;2023-02-18T00:41:47;1011.4607046904422;;;7.512827698590121;45.41455737405189
46382;BME280;66809;52.974;-2.514;2023-02-18T00:43:47;1011.4256032606044;;;7.49353673926818;45.42147301907824
46382;BME280;66809;52.974;-2.514;2023-02-18T00:45:47;1011.3975770773611;;;7.465853168535825;45.42713656105217
46382;BME280;66809;52.974;-2.514;2023-02-18T00:47:46;1011.3674770120025;;;7.452234216595883;45.43295385980862
46382;BME280;66809;52.974;-2.514;2023-02-18T00:49:47;1011.3417011925277;;;7.441004998539065;45.41666914674702
46382;BME280;66809;52.974;-2.514;2023-02-18T00:51:47;1011.3157372232062;;;7.4306793673726075;45.39941595050508
46382;BME280;66809;52.974;-2.514;2023-02-18T00:53:47;1011.2886932773771;;;7.423111899530862;45.38358924358045
46382;BME280;66809;52.974;-2.514;2023-02-18T00:55:46;1011.2633695848531;;;7.40017461069389;45.37717003486922
46382;BME280;66809;52.974;-2.514;2023-02-18T00:57:46;1011.2373853159737;;;7.3793500770315585;45.373281812603075
46382;BME280;66809;52.974;-2.514;2023-02-18T00:59:47;1011.2097485896118;;;7.354173116930937;45.37504995539535
46382;BME280;66809;52.974;-2.514;2023-02-18T01:01:47;1011.1854317941284;;;7.337337386902578;45.37594118682897
46382;BME280;66809;52.974;-2.514;2023-02-18T01:03:46;1011.1639540080804;;;7.321510688932536;45.38258261719634
46382;BME280;66809;52.974;-2.514;2023-02-18T01:05:46;1011.1439811249259;;;7.3058296816738455;45.38527457738693
46382;BME280;66809;52.974;-2.514;2023-02-18T01:07:47;1011.1277360636457;;;7.29316503803479;45.39049712711065
46382;BME280;66809;52.974;-2.514;2023-02-18T01:09:47;1011.1128434252228;;;7.282337799241777;45.39280287210343
46382;BME280;66809;52.974;-2.514;2023-02-18T01:11:47;1011.1017950173461;;;7.2708272097480835;45.39542912863629
46382;BME280;66809;52.974;-2.514;2023-02-18T01:13:46;1011.0916296336183;;;7.259710497562144;45.39161797343718
46382;BME280;66809;52.974;-2.514;2023-02-18T01:15:47;1011.0840810452213;;;7.2502233388158155;45.38440287470353
46382;BME280;66809;52.974;-2.514;2023-02-18T01:17:47;1011.0789591836661;;;7.235850855982141;45.371716643952055
46382;BME280;66809;52.974;-2.514;2023-02-18T01:19:47;1011.0745036757896;;;7.222528706769954;45.35552558811177
46382;BME280;66809;52.974;-2.514;2023-02-18T01:21:46;1011.070576209448;;;7.218339517062647;45.327072318007055
46382;BME280;66809;52.974;-2.514;2023-02-18T01:23:47;1011.0707876852018;;;7.212956593398757;45.28438315245363
46382;BME280;66809;52.974;-2.514;2023-02-18T01:25:47;1011.0725939217714;;;7.209226388879485;45.23672348004697
46382;BME280;66809;52.974;-2.514;2023-02-18T01:27:47;1011.0777011333004;;;7.209053151790642;45.190139220239956
46382;BME280;66809;52.974;-2.514;2023-02-18T01:29:47;1011.0830390120103;;;7.207025336051487;45.13802930046292
46382;BME280;66809;52.974;-2.514;2023-02-18T01:31:46;1011.0905524434384;;;7.214725152399732;45.07473510451546
46382;BME280;66809;52.974;-2.514;2023-02-18T01:33:47;1011.1017515058682;;;7.220698350740812;45.01652712908158
46382;BME280;66809;52.974;-2.514;2023-02-18T01:35:47;1011.1101860014385;;;7.2241726277532665;44.949938927554996
46382;BME280;66809;52.974;-2.514;2023-02-18T01:37:47;1011.1169477451738;;;7.23276390733152;44.88483311323291
46382;BME280;66809;52.974;-2.514;2023-02-18T01:39:47;1011.1180846071134;;;7.247151814966191;44.81613428726684
46382;BME280;66809;52.974;-2.514;2023-02-18T01:41:46;1011.113556873;;;7.253619271507379;44.75267628964665
46382;BME280;66809;52.974;-2.514;2023-02-18T01:44:11;1011.1145877453362;;;7.258178081604123;44.679882853512666
46382;BME280;66809;52.974;-2.514;2023-02-18T01:45:56;1011.1086432582359;;;7.275469830630868;44.5999726633453
46382;BME280;66809;52.974;-2.514;2023-02-18T01:47:51;1011.1012451082935;;;7.285180946194107;44.520613041107595
46382;BME280;66809;52.974;-2.514;2023-02-18T01:49:50;1011.0882004775036;;;7.291995945171154;44.453724243038764
46382;BME280;66809;52.974;-2.514;2023-02-18T01:51:50;1011.072328731443;;;7.300877376561014;44.384282908426975
46382;BME280;66809;52.974;-2.514;2023-02-18T01:53:52;1011.0558199198337;;;7.310013665963065;44.31161965124134
46382;BME280;66809;52.974;-2.514;2023-02-18T01:55:48;1011.0406831957571;;;7.320903070730318;44.23623561849242
46382;BME280;66809;52.974;-2.514;2023-02-18T01:57:47;1011.0268533336478;;;7.332132290581451;44.16279616067246
46382;BME280;66809;52.974;-2.514;2023-02-18T01:59:49;1011.0179599182973;;;7.337283515657284;44.09207709030361
46382;BME280;66809;52.974;-2.514;2023-02-18T02:01:47;1011.0074520136505;;;7.345516209179634;44.02635284478472
46382;BME280;66809;52.974;-2.514;2023-02-18T02:03:47;1010.9950713651365;;;7.351759704528778;43.95701763696168
46382;BME280;66809;52.974;-2.514;2023-02-18T02:05:47;1010.9818598057856;;;7.350105917925433;43.88941516908754
46382;BME280;66809;52.974;-2.514;2023-02-18T02:07:50;1010.9674074002075;;;7.353476462471364;43.818311521653214
46382;BME280;66809;52.974;-2.514;2023-02-18T02:09:48;1010.9539272162602;;;7.369533608827337;43.75277291373916
46382;BME280;66809;52.974;-2.514;2023-02-18T02:12:03;1010.9398900530284;;;7.379751120829403;43.67902658255966
46382;BME280;66809;52.974;-2.514;2023-02-18T02:14:00;1010.9290113771445;;;7.388937083094287;43.60675265389682
46382;BME280;66809;52.974;-2.514;2023-02-18T02:15:51;1010.915973557854;;;7.398926236798704;43.525393542639364
46382;BME280;66809;52.974;-2.514;2023-02-18T02:17:57;1010.9037179702034;;;7.4079654627850315;43.45261770919697
46382;BME280;66809;52.974;-2.514;2023-02-18T02:20:19;1010.8912702113159;;;7.416742101536024;43.38844126122577
46382;BME280;66809;52.974;-2.514;2023-02-18T02:30:07;1010.7002114831747;;;7.367488340585889;42.7027298333954
46382;BME280;66809;52.974;-2.514;2023-02-18T02:31:56;1010.6952051943326;;;7.38462783366441;42.70874540217252
46382;BME280;66809;52.974;-2.514;2023-02-18T02:33:56;1010.6921606763829;;;7.401511129598031;42.6929228719606
46382;BME280;66809;52.974;-2.514;2023-02-18T02:35:43;1010.6814702798362;;;7.402956725836418;42.67557184207787
46382;BME280;66809;52.974;-2.514;2023-02-18T02:37:46;1010.6693976451002;;;7.407341020367534;42.655256373016385
46382;BME280;66809;52.974;-2.514;2023-02-18T02:39:49;1010.6622391515356;;;7.421045465352537;42.63368897589792
46382;BME280;66809;52.974;-2.514;2023-02-18T02:41:48;1010.6507716846353;;;7.433069269513309;42.62310627136897
46382;BME280;66809;52.974;-2.514;2023-02-18T02:43:50;1010.6387416755867;;;7.44666869572343;42.61278849666901
46382;BME280;66809;52.974;-2.514;2023-02-18T02:45:50;1010.627654215075;;;7.454476471135844;42.607178161367315
46382;BME280;66809;52.974;-2.514;2023-02-18T02:47:44;1010.6133359811516;;;7.474806186389562;42.6061153437143
46382;BME280;66809;52.974;-2.514;2023-02-18T02:49:46;1010.6080727045281;;;7.487312158210834;42.59966333048277
46382;BME280;66809;52.974;-2.514;2023-02-18T02:51:42;1010.6033049349621;;;7.49846719278942;42.602070606434516
46382;BME280;66809;52.974;-2.514;2023-02-18T02:53:41;1010.5974640746854;;;7.502136679490432;42.610239734524164
46382;BME280;66809;52.974;-2.514;2023-02-18T02:55:40;1010.5909119834134;;;7.510763082906278;42.61817705003812
46382;BME280;66809;52.974;-2.514;2023-02-18T02:57:46;1010.5843350412281;;;7.507771521952604;42.63636518584459
46382;BME280;66809;52.974;-2.514;2023-02-18T02:59:42;1010.5741913125887;;;7.510186676928826;42.66275651060521
46382;BME280;66809;52.974;-2.514;2023-02-18T03:01:48;1010.5643316403537;;;7.507113319492674;42.69689421085199
46382;BME280;66809;52.974;-2.514;2023-02-18T03:03:56;1010.5551167766363;;;7.502394288868587;42.737454549307046
46382;BME280;66809;52.974;-2.514;2023-02-18T03:05:54;1010.5471361862488;;;7.500786719361147;42.776657779461765
46382;BME280;66809;52.974;-2.514;2023-02-18T03:07:51;1010.5376007354655;;;7.4991780529549645;42.81645000658222
46382;BME280;66809;52.974;-2.514;2023-02-18T03:09:53;1010.5255400635405;;;7.4966968430413985;42.85298433342376
46382;BME280;66809;52.974;-2.514;2023-02-18T03:11:53;1010.5139108365637;;;7.497591574943855;42.885126770340946
46382;BME280;66809;52.974;-2.514;2023-02-18T03:13:53;1010.5016968090013;;;7.495272274678211;42.91687336436437
46382;BME280;66809;52.974;-2.514;2023-02-18T03:15:46;1010.4896762885015;;;7.494034354149149;42.95246567809059
46382;BME280;66809;52.974;-2.514;2023-02-18T03:17:44;1010.4718553323978;;;7.44728253663268;42.986470338296876
46382;BME280;66809;52.974;-2.514;2023-02-18T03:19:44;1010.4530065676189;;;7.474735234095096;43.01922431949003
46382;BME280;66809;52.974;-2.514;2023-02-18T03:21:43;1010.4316872536663;;;7.497588358336616;43.054220115943586
46382;BME280;66809;52.974;-2.514;2023-02-18T03:23:45;1010.4083309023891;;;7.523902434918847;43.09818023960237
46382;BME280;66809;52.974;-2.514;2023-02-18T03:25:41;1010.3853231397196;;;7.540070775081977;43.14107033270774
46382;BME280;66809;52.974;-2.514;2023-02-18T03:27:43;1010.3583282356633;;;7.549779635259035;43.1849299748867
46382;BME280;66809;52.974;-2.514;2023-02-18T03:29:41;1010.3332740935089;;;7.546891234746366;43.24205159292732
46382;BME280;66809;52.974;-2.514;2023-02-18T03:31:43;1010.3094168512694;;;7.546072597345073;43.29302377346109
46382;BME280;66809;52.974;-2.514;2023-02-18T03:33:43;1010.2884611461935;;;7.54169699267874;43.34829810940027
46382;BME280;66809;52.974;-2.514;2023-02-18T03:35:41;1010.2705959445309;;;7.54674449798116;43.40524342098097
46382;BME280;66809;52.974;-2.514;2023-02-18T03:37:44;1010.2540755934625;;;7.545616940177812;43.46862408440791
46382;BME280;66809;52.974;-2.514;2023-02-18T03:39:43;1010.2385678396014;;;7.542875277339819;43.53277803096008
46382;BME280;66809;52.974;-2.514;2023-02-18T03:41:41;1010.2226940772234;;;7.540833073257525;43.60257455667376
46382;BME280;66809;52.974;-2.514;2023-02-18T03:43:40;1010.2089732182693;;;7.537516573840618;43.66992845286097
46382;BME280;66809;52.974;-2.514;2023-02-18T03:45:40;1010.1931467104163;;;7.5384212158611765;43.731627168456505
46382;BME280;66809;52.974;-2.514;2023-02-18T03:47:39;1010.1812888515448;;;7.53015321903901;43.78728154188875
46382;BME280;66809;52.974;-2.514;2023-02-18T03:49:40;1010.1663848706738;;;7.528075731080607;43.84148805850226
46382;BME280;66809;52.974;-2.514;2023-02-18T03:51:41;1010.1496265080631;;;7.518738240336059;43.8883727982034
46382;BME280;66809;52.974;-2.514;2023-02-18T03:53:40;1010.1327351299311;;;7.52133317092734;43.93078260252595
46382;BME280;66809;52.974;-2.514;2023-02-18T03:55:40;1010.118439655846;;;7.522962725324925;43.96986604998371
46382;BME280;66809;52.974;-2.514;2023-02-18T03:57:40;1010.1040003912882;;;7.525785628492639;44.00340272390374
46382;BME280;66809;52.974;-2.514;2023-02-18T03:59:39;1010.0935191986941;;;7.532276294826899;44.02669794900579
46382;BME280;66809;52.974;-2.514;2023-02-18T04:01:40;1010.0811676405363;;;7.546304615035184;44.03840369809338
46382;BME280;66809;52.974;-2.514;2023-02-18T04:03:40;1010.0717295023964;;;7.558004592694289;44.042600588681324
46382;BME280;66809;52.974;-2.514;2023-02-18T04:05:41;1010.0582383454486;;;7.569101514786926;44.04112440131721
46382;BME280;66809;52.974;-2.514;2023-02-18T04:07:39;1010.0467114065686;;;7.582658733292502;44.03944953107247
46382;BME280;66809;52.974;-2.514;2023-02-18T04:09:40;1010.0373052998327;;;7.595857355907023;44.03961142840406
46382;BME280;66809;52.974;-2.514;2023-02-18T04:11:40;1010.0293301167674;;;7.607627217874542;44.04562771586743
46382;BME280;66809;52.974;-2.514;2023-02-18T04:13:40;1010.0237615886039;;;7.623224353574699;44.04949693909472
46382;BME280;66809;52.974;-2.514;2023-02-18T04:15:47;1010.0191651717885;;;7.629367484685037;44.04954775429031
46382;BME280;66809;52.974;-2.514;2023-02-18T04:17:40;1010.013206505148;;;7.639535346289777;44.060814087033584
46382;BME280;66809;52.974;-2.514;2023-02-18T04:19:39;1010.0087484250266;;;7.642392860554121;44.073430152727106
46382;BME280;66809;52.974;-2.514;2023-02-18T04:21:40;1010.0086462681633;;;7.647984320992915;44.08019877521461
46382;BME280;66809;52.974;-2.514;2023-02-18T04:23:40;1010.0112412831106;;;7.654235574460218;44.079273806353015
46382;BME280;66809;52.974;-2.514;2023-02-18T04:25:40;1010.0117840049438;;;7.66934616420773;44.07708591393075
46382;BME280;66809;52.974;-2.514;2023-02-18T04:27:53;1010.0140816000857;;;7.684344251805736;44.07169293221708
46382;BME280;66809;52.974;-2.514;2023-02-18T04:29:40;1010.013237395598;;;7.694661820941023;44.05537672923313
46382;BME280;66809;52.974;-2.514;2023-02-18T04:31:40;1010.0098973215815;;;7.706226502435786;44.04012221632934
46382;BME280;66809;52.974;-2.514;2023-02-18T04:33:40;1009.9998319387723;;;7.72086598211609;44.030901701631706
46382;BME280;66809;52.974;-2.514;2023-02-18T04:35:39;1009.9887449808734;;;7.726426544785112;44.027514395576155
46382;BME280;66809;52.974;-2.514;2023-02-18T04:37:40;1009.9772884797595;;;7.730249429717611;44.0217746632098
46382;BME280;66809;52.974;-2.514;2023-02-18T04:39:40;1009.963717007542;;;7.73389468361222;44.019550084775105
46382;BME280;66809;52.974;-2.514;2023-02-18T04:41:41;1009.9531854787573;;;7.739257778731749;44.001831818456466
46382;BME280;66809;52.974;-2.514;2023-02-18T04:43:39;1009.9412082828451;;;7.745045639465072;43.98528572451777
46382;BME280;66809;52.974;-2.514;2023-02-18T04:45:40;1009.9316148463794;;;7.740460462782429;43.972725155646124
46382;BME280;66809;52.974;-2.514;2023-02-18T04:47:40;1009.9195881625991;;;7.744406915566218;43.966008791636696
46382;BME280;66809;52.974;-2.514;2023-02-18T04:49:40;1009.90542863502;;;7.745132877730017;43.96611067428526
46382;BME280;66809;52.974;-2.514;2023-02-18T04:51:39;1009.8935331370637;;;7.744306516134397;43.97059860277879
46382;BME280;66809;52.974;-2.514;2023-02-18T04:53:40;1009.8835679792734;;;7.7411323602029;43.97321883761029
46382;BME280;66809;52.974;-2.514;2023-02-18T04:55:40;1009.8716267468694;;;7.737657007984443;43.98355285353221
46382;BME280;66809;52.974;-2.514;2023-02-18T04:57:40;1009.8625460891942;;;7.735760864760194;43.99308918372738
46382;BME280;66809;52.974;-2.514;2023-02-18T04:59:40;1009.8507031226018;;;7.732541414240577;44.01188101024313
46382;BME280;66809;52.974;-2.514;2023-02-18T05:01:39;1009.842582474323;;;7.716210586878689;44.032619910974674
46382;BME280;66809;52.974;-2.514;2023-02-18T05:03:40;1009.8334567738501;;;7.711360905416766;44.05394332074545
46382;BME280;66809;52.974;-2.514;2023-02-18T05:05:40;1009.826828755691;;;7.708071935760065;44.073721327155454
46382;BME280;66809;52.974;-2.514;2023-02-18T05:07:40;1009.8189971045787;;;7.700276073382123;44.09280791856189
46382;BME280;66809;52.974;-2.514;2023-02-18T05:09:39;1009.8105653415446;;;7.6919352188928745;44.11025025738196
46382;BME280;66809;52.974;-2.514;2023-02-18T05:14:25;1009.636073355994;;;7.405056413963606;44.575243570206275
46382;BME280;66809;52.974;-2.514;2023-02-18T05:16:30;1009.6464912165038;;;7.405290760518042;44.59584724115004
46382;BME280;66809;52.974;-2.514;2023-02-18T05:18:25;1009.6609400309309;;;7.425530591235486;44.618674908416665
46382;BME280;66809;52.974;-2.514;2023-02-18T05:20:25;1009.6752265292364;;;7.430982048433487;44.663295500910195
46382;BME280;66809;52.974;-2.514;2023-02-18T05:22:25;1009.6848566103195;;;7.433272872641148;44.72001861010132
46382;BME280;66809;52.974;-2.514;2023-02-18T05:24:25;1009.6988059996928;;;7.435123970371284;44.76801778744451
46382;BME280;66809;52.974;-2.514;2023-02-18T05:26:25;1009.710272351869;;;7.45357043353274;44.80390266112593
46382;BME280;66809;52.974;-2.514;2023-02-18T05:28:24;1009.7283951565942;;;7.4415175992302105;44.85010128113019
46382;BME280;66809;52.974;-2.514;2023-02-18T05:30:25;1009.7414801184448;;;7.448891924461727;44.89694195553351
46382;BME280;66809;52.974;-2.514;2023-02-18T05:32:26;1009.7546628689977;;;7.440723304058635;44.93102201290864
46382;BME280;66809;52.974;-2.514;2023-02-18T05:34:24;1009.7662466627037;;;7.438967222308895;44.95079783710867
46382;BME280;66809;52.974;-2.514;2023-02-18T05:36:25;1009.7773769862358;;;7.435745817179706;44.96397295446028
46382;BME280;66809;52.974;-2.514;2023-02-18T05:38:25;1009.7891748758254;;;7.442698965283514;44.96561632379763
46382;BME280;66809;52.974;-2.514;2023-02-18T05:40:25;1009.7971284270961;;;7.45113468457709;44.96637783518791
46382;BME280;66809;52.974;-2.514;2023-02-18T05:42:24;1009.8043962403002;;;7.461370757354269;44.96610795631051
46382;BME280;66809;52.974;-2.514;2023-02-18T05:44:26;1009.8114390310801;;;7.4697856656618224;44.961495291898736
46382;BME280;66809;52.974;-2.514;2023-02-18T05:46:24;1009.8161793454158;;;7.483810784537248;44.95232605588617
46382;BME280;66809;52.974;-2.514;2023-02-18T05:48:25;1009.8186538009517;;;7.491516210595074;44.93708103683854
46382;BME280;66809;52.974;-2.514;2023-02-18T05:50:27;1009.8223757010998;;;7.497122384678449;44.92398387275466
46382;BME280;66809;52.974;-2.514;2023-02-18T05:52:25;1009.8262291338342;;;7.502823073348017;44.91505292250066
46382;BME280;66809;52.974;-2.514;2023-02-18T05:54:25;1009.8324459993033;;;7.50905770829222;44.898024012979945
46382;BME280;66809;52.974;-2.514;2023-02-18T05:56:25;1009.8367568884323;;;7.522116857449446;44.881706699839164
46382;BME280;66809;52.974;-2.514;2023-02-18T05:58:25;1009.8410752881597;;;7.539033556260881;44.863083397942404
46382;BME280;66809;52.974;-2.514;2023-02-18T06:00:24;1009.8456496655745;;;7.555957759908739;44.83945402637543
46382;BME280;66809;52.974;-2.514;2023-02-18T06:02:25;1009.8614309078806;;;7.520968764229091;44.830652815918576
46382;BME280;66809;52.974;-2.514;2023-02-18T06:04:25;1009.8741113311766;;;7.549779688140508;44.81745938980771
46382;BME280;66809;52.974;-2.514;2023-02-18T06:06:25;1009.8881110381789;;;7.571052582572887;44.804466683211984
46382;BME280;66809;52.974;-2.514;2023-02-18T06:08:24;1009.9021598560503;;;7.5981452911542195;44.79060505965096
46382;BME280;66809;52.974;-2.514;2023-02-18T06:10:26;1009.9176483760584;;;7.6361509922796165;44.774022631799205
46382;BME280;66809;52.974;-2.514;2023-02-18T06:12:25;1009.9361786318424;;;7.663347451037689;44.753145203353185
46382;BME280;66809;52.974;-2.514;2023-02-18T06:14:25;1009.9550793197104;;;7.677773697386148;44.730994279905104
46382;BME280;66809;52.974;-2.514;2023-02-18T06:16:25;1009.9714190535964;;;7.693084378320054;44.70272016555101
46382;BME280;66809;52.974;-2.514;2023-02-18T06:18:25;1009.9855717694812;;;7.713158826293701;44.66586270008959
46382;BME280;66809;52.974;-2.514;2023-02-18T06:20:25;1009.9992432647106;;;7.74022363793781;44.62217375516493
46382;BME280;66809;52.974;-2.514;2023-02-18T06:22:25;1010.0133246693163;;;7.757615164034325;44.57186471716395
46382;BME280;66809;52.974;-2.514;2023-02-18T06:24:25;1010.0231675790344;;;7.779875902267375;44.51803820818898
46382;BME280;66809;52.974;-2.514;2023-02-18T06:26:36;1010.0317795575763;;;7.801873383775592;44.46508277927921
46382;BME280;66809;52.974;-2.514;2023-02-18T06:28:25;1010.0378717568803;;;7.828826358081008;44.40570476700141
46382;BME280;66809;52.974;-2.514;2023-02-18T06:30:25;1010.0459985229752;;;7.850534363336535;44.34273005273166
46382;BME280;66809;52.974;-2.514;2023-02-18T06:32:25;1010.0546040243411;;;7.87652969048548;44.284612722861105
46382;BME280;66809;52.974;-2.514;2023-02-18T06:34:26;1010.0649492187365;;;7.9084721195479215;44.23096393712622
46382;BME280;66809;52.974;-2.514;2023-02-18T06:36:25;1010.0774245132775;;;7.934683708555838;44.17976791033989
46382;BME280;66809;52.974;-2.514;2023-02-18T06:38:25;1010.0917821269472;;;7.961937257839197;44.13236833314321
46382;BME280;66809;52.974;-2.514;2023-02-18T06:40:25;1010.1093081404757;;;7.986368217672199;44.085558257552854
46382;BME280;66809;52.974;-2.514;2023-02-18T06:42:25;1010.1274575379703;;;8.01346028218708;44.034530505827696
46382;BME280;66809;52.974;-2.514;2023-02-18T06:44:25;1010.1451968209443;;;8.037470866491455;43.98709670822463
46382;BME280;66809;52.974;-2.514;2023-02-18T06:46:25;1010.1653998406553;;;8.051974051291586;43.94473494575023
46382;BME280;66809;52.974;-2.514;2023-02-18T06:48:25;1010.1875643370441;;;8.07097641271516;43.907846655252264
46382;BME280;66809;52.974;-2.514;2023-02-18T06:50:24;1010.2080040849572;;;8.095612561741847;43.86969539290963
46382;BME280;66809;52.974;-2.514;2023-02-18T06:52:26;1010.2289994361773;;;8.115572577699574;43.831057936632725
46382;BME280;66809;52.974;-2.514;2023-02-18T06:54:25;1010.2478871098143;;;8.13555242592109;43.798840001255066
46382;BME280;66809;52.974;-2.514;2023-02-18T06:56:25;1010.2698193674095;;;8.159018403699791;43.76406533809423
46382;BME280;66809;52.974;-2.514;2023-02-18T06:58:25;1010.2934457978403;;;8.169853179041038;43.72938142007784
46382;BME280;66809;52.974;-2.514;2023-02-18T07:00:25;1010.3167116184953;;;8.18398939097121;43.7015323602137
46382;BME280;66809;52.974;-2.514;2023-02-18T07:02:25;1010.3385276930853;;;8.206420487325593;43.6699707340003
46382;BME280;66809;52.974;-2.514;2023-02-18T07:04:25;1010.3635180032207;;;8.22060371953204;43.64339392876759
46382;BME280;66809;52.974;-2.514;2023-02-18T07:06:24;1010.3907325146042;;;8.241699410288433;43.61671762221228
46382;BME280;66809;52.974;-2.514;2023-02-18T07:08:25;1010.4145387004704;;;8.265169772818128;43.589538246546674
46382;BME280;66809;52.974;-2.514;2023-02-18T07:10:25;1010.4383617276995;;;8.277703968766655;43.56498526639552
46382;BME280;66809;52.974;-2.514;2023-02-18T07:12:25;1010.4632624215059;;;8.29245131927558;43.54580352841809
46382;BME280;66809;52.974;-2.514;2023-02-18T07:14:25;1010.4879932462471;;;8.309642547523588;43.51626493854247
46382;BME280;66809;52.974;-2.514;2023-02-18T07:16:25;1010.5132505606301;;;8.337221629698016;43.483497056661626
46382;BME280;66809;52.974;-2.514;2023-02-18T07:18:24;1010.5395009934912;;;8.352984782011434;43.454232509800654
46382;BME280;66809;52.974;-2.514;2023-02-18T07:20:26;1010.5660684318689;;;8.364851151620492;43.4288874857681
46382;BME280;66809;52.974;-2.514;2023-02-18T07:22:25;1010.5921989213039;;;8.390715729486478;43.395122369879445
46382;BME280;66809;52.974;-2.514;2023-02-18T07:24:25;1010.6181462028196;;;8.416970527555334;43.35832791389679